OINR  Ramsar  Airport

Iran

Add Bookmark
Status IATA
Operational RZR
Latitude Longitude
36° 54' 35" N 50° 40' 46" E
36.909901 50.679600
Local (DST + 5) UTC (GMT + 4)
Mar 5, 2015 01:50 Mar 5, 2015 10:20
Sunrise-Sunset Local UTC
Begin Civil Twilight 06:05 02:35
Sunrise 06:31 03:01
Sunset 06:06 14:36
End Civil Twilight 06:32 15:02

Current Weather

METAR Observed IFR
OINR 051000Z VRB02KT 9000 -RA BKN007 FEW020CB OVC070 10/09 Q1017 Thu, Mar 5, 2015 @ 10:00 UTC
(20 Minutes ago)
Instrument Flight Rules
Wind Visibility Clouds Conditions
Varies at 2 knots (4 kph) 9000 meters
  • Broken at 700' AGL
  • Few at 2,000' AGL
  • Overcast at 7,000' AGL
  • Light Rain
Temperatures Readings Precipitation
Current Temp 10°C (50°F)
Dewpoint 9°C (48°F)
Humidity 94%
Altimeter 30.03"Hg
Sea Level Pressure 1017mb
None Recorded

Additional weather within a 92.6km radius of OINR

Map ICAO Location
OINN 75km E (111°)

24 Hour Weather History

Loading
-

24 Hour Weather Graphs

Loading
-

CheckWX.com is intended as a tool to help pilots better visualize weather data. It is not intended as a substitute for an official weather briefing obtained from a Flight Service Station. CheckWX.com does not meet the FAA requirements for an official pre-flight weather briefing. Therefore, it's important that pilots still call and obtain an official FSS pre-flight weather briefing.